createdAt,value
2019-03-28T00:00:40.784Z,47.33
2019-03-28T00:01:16.981Z,49.88
2019-03-28T00:01:53.321Z,49.45
2019-03-28T00:02:29.616Z,49.50
2019-03-28T00:03:05.801Z,48.33
2019-03-28T00:03:41.977Z,50.50
2019-03-28T00:04:18.257Z,50.45
2019-03-28T00:04:54.577Z,49.88
2019-03-28T00:05:30.849Z,49.75
2019-03-28T00:06:07.028Z,49.08
2019-03-28T00:06:43.215Z,47.80
2019-03-28T00:07:19.301Z,50.40
2019-03-28T00:07:55.735Z,48.30
2019-03-28T00:08:31.898Z,50.58
2019-03-28T00:09:09.347Z,49.93
2019-03-28T00:09:45.585Z,48.15
2019-03-28T00:10:21.902Z,53.28
2019-03-28T00:10:58.550Z,50.63
2019-03-28T00:11:34.896Z,48.17
2019-03-28T00:12:12.876Z,49.20
2019-03-28T00:12:49.969Z,50.88
2019-03-28T00:13:26.520Z,53.80
2019-03-28T00:14:02.716Z,53.92
2019-03-28T00:14:39.205Z,53.83
2019-03-28T00:15:15.565Z,54.77
2019-03-28T00:15:51.881Z,55.38
2019-03-28T00:16:27.937Z,54.50
2019-03-28T00:17:04.176Z,57.45
2019-03-28T00:17:40.344Z,52.95
2019-03-28T00:18:16.436Z,50.73
2019-03-28T00:18:53.189Z,50.08
2019-03-28T00:19:29.587Z,50.98
2019-03-28T00:20:06.438Z,48.00
2019-03-28T00:20:42.696Z,50.45
2019-03-28T00:21:18.738Z,50.25
2019-03-28T00:21:55.067Z,48.20
2019-03-28T00:22:38.705Z,49.63
2019-03-28T00:23:45.708Z,45.05
2019-03-28T00:24:47.219Z,46.23
2019-03-28T00:25:23.698Z,52.30
2019-03-28T00:25:59.878Z,50.85
2019-03-28T00:26:36.160Z,53.33
2019-03-28T00:27:12.480Z,50.52
2019-03-28T00:27:48.510Z,49.25
2019-03-28T00:28:24.720Z,49.10
2019-03-28T00:29:00.869Z,48.13
2019-03-28T00:29:37.069Z,48.38
2019-03-28T00:30:13.610Z,50.38
2019-03-28T00:30:50.009Z,51.20
2019-03-28T00:31:26.251Z,51.42
2019-03-28T00:32:02.601Z,50.45
2019-03-28T00:32:38.699Z,51.30
2019-03-28T00:33:14.732Z,53.25
2019-03-28T00:33:50.794Z,53.85
2019-03-28T00:34:26.939Z,53.87
2019-03-28T00:35:03.066Z,54.60
2019-03-28T00:35:39.268Z,54.40
2019-03-28T00:36:15.473Z,57.20
2019-03-28T00:36:51.670Z,59.18
2019-03-28T00:37:27.886Z,58.15
2019-03-28T00:38:04.214Z,55.83
2019-03-28T00:38:40.490Z,57.20
2019-03-28T00:39:16.820Z,58.38
2019-03-28T00:39:53.069Z,61.02
2019-03-28T00:40:30.215Z,63.00
2019-03-28T00:41:06.636Z,65.50
2019-03-28T00:41:43.126Z,61.55
2019-03-28T00:42:19.468Z,66.92
2019-03-28T00:42:55.524Z,70.90
2019-03-28T00:43:31.739Z,70.37
2019-03-28T00:44:07.985Z,67.78
2019-03-28T00:44:43.990Z,63.42
2019-03-28T00:45:20.229Z,57.73
2019-03-28T00:45:56.502Z,58.92
2019-03-28T00:46:32.766Z,60.28
2019-03-28T00:47:08.938Z,60.38
2019-03-28T00:47:45.147Z,56.28
2019-03-28T00:48:21.748Z,59.90
2019-03-28T00:48:58.158Z,58.65
2019-03-28T00:49:34.292Z,60.55
2019-03-28T00:50:10.998Z,61.15
2019-03-28T00:50:47.094Z,60.73
2019-03-28T00:51:23.198Z,59.13
2019-03-28T00:51:59.290Z,59.93
2019-03-28T00:52:35.860Z,60.38
2019-03-28T00:53:12.105Z,63.33
2019-03-28T00:53:48.358Z,62.95
2019-03-28T00:54:24.443Z,60.55
2019-03-28T00:55:00.662Z,63.95
2019-03-28T00:55:37.232Z,63.90
2019-03-28T00:56:13.389Z,77.72
2019-03-28T00:56:49.563Z,72.82
2019-03-28T00:57:25.897Z,68.35
2019-03-28T00:58:02.212Z,67.47
2019-03-28T00:58:38.487Z,70.60
2019-03-28T00:59:14.610Z,75.37
2019-03-28T00:59:50.967Z,70.12
2019-03-28T01:00:27.340Z,73.97
2019-03-28T01:01:03.423Z,71.25
2019-03-28T01:01:39.399Z,71.47
2019-03-28T01:02:15.631Z,73.30
2019-03-28T01:02:52.222Z,70.42
2019-03-28T01:03:28.368Z,68.25
2019-03-28T01:04:05.034Z,70.12
2019-03-28T01:04:41.361Z,67.55
2019-03-28T01:05:17.907Z,69.95
2019-03-28T01:05:55.041Z,65.00
2019-03-28T01:06:31.183Z,62.23
2019-03-28T01:07:07.504Z,64.42
2019-03-28T01:07:43.893Z,60.00
2019-03-28T01:08:20.186Z,59.60
2019-03-28T01:09:04.262Z,59.35
2019-03-28T01:09:40.625Z,58.28
2019-03-28T01:10:16.960Z,61.63
2019-03-28T01:10:53.271Z,61.90
2019-03-28T01:11:29.593Z,60.20
2019-03-28T01:12:06.201Z,60.52
2019-03-28T01:12:42.748Z,60.30
2019-03-28T01:13:18.995Z,59.80
2019-03-28T01:13:55.259Z,59.48
2019-03-28T01:14:31.390Z,58.48
2019-03-28T01:15:08.440Z,59.03
2019-03-28T01:15:44.601Z,60.23
2019-03-28T01:16:20.572Z,60.08
2019-03-28T01:16:56.792Z,61.23
2019-03-28T01:17:33.121Z,58.30
2019-03-28T01:18:09.295Z,59.85
2019-03-28T01:18:45.518Z,58.63
2019-03-28T01:19:21.991Z,57.33
2019-03-28T01:19:58.273Z,54.55
2019-03-28T01:20:34.298Z,54.80
2019-03-28T01:21:10.380Z,56.37
2019-03-28T01:21:46.526Z,55.95
2019-03-28T01:22:22.676Z,54.65
2019-03-28T01:22:59.486Z,55.38
2019-03-28T01:23:35.679Z,55.60
2019-03-28T01:24:11.997Z,55.83
2019-03-28T01:24:48.360Z,54.95
2019-03-28T01:25:24.511Z,55.52
2019-03-28T01:26:00.799Z,54.10
2019-03-28T01:26:37.132Z,54.67
2019-03-28T01:27:13.546Z,57.78
2019-03-28T01:27:50.401Z,54.23
2019-03-28T01:28:26.688Z,52.13
2019-03-28T01:29:02.797Z,54.77
2019-03-28T01:29:38.947Z,53.02
2019-03-28T01:30:15.484Z,53.00
2019-03-28T01:30:52.069Z,51.77
2019-03-28T01:31:28.523Z,50.45
2019-03-28T01:32:04.663Z,52.40
2019-03-28T01:32:40.955Z,50.95
2019-03-28T01:33:17.123Z,52.00
2019-03-28T01:33:53.418Z,51.18
2019-03-28T01:34:29.466Z,50.98
2019-03-28T01:35:05.725Z,51.70
2019-03-28T01:35:41.742Z,50.85
2019-03-28T01:36:17.933Z,51.53
2019-03-28T01:36:54.294Z,49.83
2019-03-28T01:37:30.827Z,47.65
2019-03-28T01:38:07.296Z,49.70
2019-03-28T01:38:44.432Z,51.23
2019-03-28T01:39:20.719Z,52.05
2019-03-28T01:39:57.067Z,50.33
2019-03-28T01:40:33.605Z,53.75
2019-03-28T01:41:09.842Z,50.48
2019-03-28T01:41:45.914Z,51.35
2019-03-28T01:42:22.149Z,54.60
2019-03-28T01:42:58.538Z,57.20
2019-03-28T01:43:34.848Z,55.40
2019-03-28T01:44:10.979Z,56.13
2019-03-28T01:44:47.172Z,57.50
2019-03-28T01:45:23.518Z,57.17
2019-03-28T01:45:59.941Z,55.20
2019-03-28T01:46:36.087Z,52.43
2019-03-28T01:47:12.217Z,54.88
2019-03-28T01:47:48.449Z,52.58
2019-03-28T01:48:24.738Z,56.53
2019-03-28T01:49:03.587Z,53.73
2019-03-28T01:49:38.876Z,53.13
2019-03-28T01:50:15.426Z,52.03
2019-03-28T01:50:51.852Z,52.98
2019-03-28T01:51:28.132Z,51.48
2019-03-28T01:52:04.550Z,51.73
2019-03-28T01:52:40.750Z,52.78
2019-03-28T01:53:16.966Z,56.37
2019-03-28T01:53:53.036Z,54.80
2019-03-28T01:54:29.469Z,57.08
2019-03-28T01:55:05.754Z,54.60
2019-03-28T01:55:42.059Z,55.15
2019-03-28T01:56:18.348Z,51.95
2019-03-28T01:56:54.590Z,55.05
2019-03-28T01:57:30.863Z,58.55
2019-03-28T01:58:07.088Z,57.05
2019-03-28T01:58:43.120Z,55.45
2019-03-28T01:59:19.640Z,59.23
2019-03-28T01:59:56.444Z,57.78
2019-03-28T02:00:32.830Z,57.23
2019-03-28T02:01:09.067Z,55.78
2019-03-28T02:01:45.310Z,57.73
2019-03-28T02:02:21.454Z,57.03
2019-03-28T02:02:57.743Z,56.08
2019-03-28T02:03:33.922Z,59.23
2019-03-28T02:04:10.114Z,57.53
2019-03-28T02:04:46.371Z,58.75
2019-03-28T02:05:22.796Z,58.65
2019-03-28T02:05:58.986Z,57.93
2019-03-28T02:06:35.193Z,56.90
2019-03-28T02:07:11.362Z,59.08
2019-03-28T02:07:47.928Z,62.08
2019-03-28T02:08:24.941Z,58.80
2019-03-28T02:09:01.281Z,57.50
2019-03-28T02:09:37.723Z,60.43
2019-03-28T02:10:14.267Z,59.13
2019-03-28T02:10:50.704Z,57.98
2019-03-28T02:11:27.035Z,59.23
2019-03-28T02:12:03.143Z,56.85
2019-03-28T02:12:39.271Z,59.33
2019-03-28T02:13:15.603Z,59.63
2019-03-28T02:13:51.638Z,58.42
2019-03-28T02:14:27.710Z,57.90
2019-03-28T02:15:04.326Z,59.30
2019-03-28T02:15:40.524Z,61.18
2019-03-28T02:16:16.830Z,59.77
2019-03-28T02:16:52.816Z,57.95
2019-03-28T02:17:29.274Z,58.65
2019-03-28T02:18:05.515Z,59.13
2019-03-28T02:18:41.657Z,56.65
2019-03-28T02:19:18.107Z,57.53
2019-03-28T02:19:54.403Z,58.90
2019-03-28T02:20:30.505Z,57.30
2019-03-28T02:21:09.508Z,58.75
2019-03-28T02:21:44.600Z,59.18
2019-03-28T02:22:20.654Z,56.37
2019-03-28T02:22:56.931Z,56.45
2019-03-28T02:23:33.099Z,58.13
2019-03-28T02:24:09.213Z,57.10
2019-03-28T02:24:45.199Z,59.00
2019-03-28T02:25:21.380Z,55.73
2019-03-28T02:25:57.576Z,57.45
2019-03-28T02:26:34.220Z,50.05
2019-03-28T02:27:23.064Z,53.20
2019-03-28T02:27:48.238Z,57.83
2019-03-28T02:28:24.376Z,57.33
2019-03-28T02:29:00.569Z,60.00
2019-03-28T02:29:36.816Z,55.73
2019-03-28T02:30:13.228Z,50.88
2019-03-28T02:30:50.676Z,50.30
2019-03-28T02:31:27.123Z,52.55
2019-03-28T02:32:03.196Z,52.43
2019-03-28T02:32:39.197Z,50.03
2019-03-28T02:33:15.284Z,48.52
2019-03-28T02:33:51.581Z,51.08
2019-03-28T02:34:27.848Z,50.95
2019-03-28T02:35:04.003Z,52.98
2019-03-28T02:35:40.139Z,53.85
2019-03-28T02:36:16.337Z,52.83
2019-03-28T02:36:52.340Z,53.80
2019-03-28T02:37:28.308Z,52.67
2019-03-28T02:38:04.340Z,55.20
2019-03-28T02:38:40.389Z,52.08
2019-03-28T02:39:16.453Z,54.08
2019-03-28T02:39:52.566Z,53.78
2019-03-28T02:40:28.661Z,53.75
2019-03-28T02:41:04.580Z,53.73
2019-03-28T02:41:40.631Z,54.45
2019-03-28T02:42:16.687Z,55.38
2019-03-28T02:42:53.398Z,55.15
2019-03-28T02:43:29.636Z,53.90
2019-03-28T02:44:05.983Z,53.85
2019-03-28T02:44:41.890Z,55.30
2019-03-28T02:45:17.999Z,54.33
2019-03-28T02:45:54.438Z,53.58
2019-03-28T02:46:30.616Z,53.10
2019-03-28T02:47:06.664Z,51.40
2019-03-28T02:47:42.857Z,54.70
2019-03-28T02:48:18.983Z,52.93
2019-03-28T02:48:54.998Z,51.83
2019-03-28T02:49:30.957Z,53.15
2019-03-28T02:50:07.519Z,54.85
2019-03-28T02:50:43.520Z,52.40
2019-03-28T02:51:19.594Z,53.83
2019-03-28T02:51:55.871Z,53.40
2019-03-28T02:52:31.882Z,54.10
2019-03-28T02:53:08.165Z,55.00
2019-03-28T02:53:44.257Z,52.10
2019-03-28T02:54:20.202Z,54.98
2019-03-28T02:54:56.521Z,55.65
2019-03-28T02:55:33.344Z,54.48
2019-03-28T02:56:09.499Z,50.78
2019-03-28T02:56:45.503Z,53.58
2019-03-28T02:57:21.512Z,53.48
2019-03-28T02:57:57.503Z,53.87
2019-03-28T02:58:33.681Z,52.62
2019-03-28T02:59:09.800Z,53.42
2019-03-28T02:59:45.776Z,54.27
2019-03-28T03:00:21.668Z,57.70
2019-03-28T03:00:57.661Z,53.48
2019-03-28T03:01:33.681Z,56.68
2019-03-28T03:02:09.781Z,55.75
2019-03-28T03:02:45.849Z,58.30
2019-03-28T03:03:22.127Z,55.78
2019-03-28T03:03:58.369Z,56.42
2019-03-28T03:04:34.276Z,56.83
2019-03-28T03:05:10.614Z,60.17
2019-03-28T03:05:46.600Z,57.73
2019-03-28T03:06:22.635Z,57.27
2019-03-28T03:06:58.683Z,57.10
2019-03-28T03:07:34.776Z,61.53
2019-03-28T03:08:10.798Z,59.23
2019-03-28T03:08:46.829Z,62.23
2019-03-28T03:09:22.939Z,65.28
2019-03-28T03:09:58.820Z,61.63
2019-03-28T03:10:34.780Z,62.85
2019-03-28T03:11:10.788Z,59.98
2019-03-28T03:11:47.039Z,61.70
2019-03-28T03:12:23.459Z,63.40
2019-03-28T03:12:59.539Z,63.28
2019-03-28T03:13:35.622Z,65.72
2019-03-28T03:14:12.058Z,65.62
2019-03-28T03:14:48.389Z,61.02
2019-03-28T03:15:24.545Z,64.65
2019-03-28T03:16:00.560Z,64.45
2019-03-28T03:16:36.547Z,68.57
2019-03-28T03:17:12.469Z,67.55
2019-03-28T03:17:48.626Z,67.27
2019-03-28T03:18:24.579Z,66.53
2019-03-28T03:19:00.555Z,71.33
2019-03-28T03:19:36.684Z,67.97
2019-03-28T03:20:12.835Z,67.60
2019-03-28T03:20:49.042Z,68.50
2019-03-28T03:21:24.982Z,67.40
2019-03-28T03:22:00.915Z,69.10
2019-03-28T03:22:36.931Z,71.17
2019-03-28T03:23:13.098Z,75.67
2019-03-28T03:23:49.179Z,74.35
2019-03-28T03:24:25.318Z,76.28
2019-03-28T03:25:01.424Z,80.32
2019-03-28T03:25:37.844Z,78.12
2019-03-28T03:26:14.056Z,74.17
2019-03-28T03:26:50.016Z,73.10
2019-03-28T03:27:26.183Z,78.75
2019-03-28T03:28:02.080Z,76.55
2019-03-28T03:28:38.060Z,72.03
2019-03-28T03:29:14.228Z,77.03
2019-03-28T03:29:50.143Z,73.20
2019-03-28T03:30:26.191Z,75.85
2019-03-28T03:31:02.221Z,75.32
2019-03-28T03:31:38.365Z,76.20
2019-03-28T03:32:14.398Z,78.15
2019-03-28T03:32:50.438Z,76.30
2019-03-28T03:33:26.389Z,75.05
2019-03-28T03:34:02.489Z,77.20
2019-03-28T03:34:38.871Z,79.42
2019-03-28T03:35:15.414Z,74.15
2019-03-28T03:35:51.619Z,78.28
2019-03-28T03:36:27.664Z,78.97
2019-03-28T03:37:04.003Z,78.28
2019-03-28T03:37:40.251Z,73.85
2019-03-28T03:38:16.382Z,75.50
2019-03-28T03:38:52.321Z,77.97
2019-03-28T03:39:28.348Z,74.10
2019-03-28T03:40:05.774Z,73.17
2019-03-28T03:40:41.807Z,75.90
2019-03-28T03:41:17.916Z,74.07
2019-03-28T03:41:53.798Z,78.80
2019-03-28T03:42:29.858Z,78.47
2019-03-28T03:43:06.000Z,76.80
2019-03-28T03:43:42.047Z,74.62
2019-03-28T03:44:18.169Z,72.72
2019-03-28T03:44:54.311Z,76.90
2019-03-28T03:45:30.979Z,78.97
2019-03-28T03:46:07.020Z,74.58
2019-03-28T03:46:43.337Z,76.10
2019-03-28T03:47:19.743Z,75.90
2019-03-28T03:47:55.980Z,75.50
2019-03-28T03:48:31.948Z,71.70
2019-03-28T03:49:08.021Z,69.58
2019-03-28T03:49:43.917Z,78.92
2019-03-28T03:50:28.758Z,72.53
2019-03-28T03:51:04.727Z,67.15
2019-03-28T03:51:41.009Z,75.05
2019-03-28T03:52:17.076Z,73.20
2019-03-28T03:52:53.232Z,76.77
2019-03-28T03:53:29.344Z,79.07
2019-03-28T03:54:05.819Z,73.50
2019-03-28T03:54:41.968Z,74.92
2019-03-28T03:55:18.022Z,82.45
2019-03-28T03:55:54.167Z,78.47
2019-03-28T03:56:30.730Z,76.53
2019-03-28T03:57:07.005Z,76.85
2019-03-28T03:57:43.239Z,75.67
2019-03-28T03:58:19.536Z,74.75
2019-03-28T03:58:55.622Z,76.28
2019-03-28T03:59:31.880Z,79.65
2019-03-28T04:00:08.833Z,76.95
2019-03-28T04:00:44.902Z,74.92
2019-03-28T04:01:21.228Z,71.15
2019-03-28T04:01:57.377Z,69.55
2019-03-28T04:02:33.457Z,71.47
2019-03-28T04:03:09.799Z,73.30
2019-03-28T04:03:45.921Z,71.00
2019-03-28T04:04:22.246Z,72.65
2019-03-28T04:04:58.473Z,68.72
2019-03-28T04:05:34.850Z,72.87
2019-03-28T04:06:11.167Z,67.47
2019-03-28T04:06:47.510Z,69.97
2019-03-28T04:07:24.092Z,69.00
2019-03-28T04:08:00.406Z,67.42
2019-03-28T04:08:36.583Z,65.05
2019-03-28T04:09:12.753Z,63.40
2019-03-28T04:09:48.883Z,68.65
2019-03-28T04:10:25.116Z,70.67
2019-03-28T04:11:01.354Z,69.35
2019-03-28T04:11:37.672Z,66.92
2019-03-28T04:12:14.063Z,73.80
2019-03-28T04:12:50.381Z,69.25
2019-03-28T04:13:26.707Z,76.77
2019-03-28T04:14:03.176Z,68.97
2019-03-28T04:14:39.447Z,56.68
2019-03-28T04:15:15.654Z,61.23
2019-03-28T04:15:51.994Z,68.52
2019-03-28T04:16:29.412Z,67.70
2019-03-28T04:17:05.811Z,69.32
2019-03-28T04:17:42.291Z,72.32
2019-03-28T04:18:21.822Z,67.87
2019-03-28T04:18:56.512Z,65.60
2019-03-28T04:19:32.771Z,62.75
2019-03-28T04:20:09.161Z,70.05
2019-03-28T04:20:45.289Z,78.78
2019-03-28T04:21:21.547Z,69.42
2019-03-28T04:21:57.988Z,66.65
2019-03-28T04:22:34.212Z,67.72
2019-03-28T04:23:10.307Z,68.28
2019-03-28T04:23:46.549Z,67.12
2019-03-28T04:24:22.807Z,69.45
2019-03-28T04:24:59.028Z,68.45
2019-03-28T04:25:35.308Z,71.47
2019-03-28T04:26:11.635Z,66.85
2019-03-28T04:26:48.027Z,66.28
2019-03-28T04:27:24.226Z,68.35
2019-03-28T04:28:01.306Z,69.65
2019-03-28T04:28:38.514Z,69.90
2019-03-28T04:29:15.071Z,67.60
2019-03-28T04:29:51.312Z,70.72
2019-03-28T04:30:27.618Z,67.12
2019-03-28T04:31:03.649Z,70.28
2019-03-28T04:31:39.934Z,66.85
2019-03-28T04:32:16.192Z,64.07
2019-03-28T04:32:52.427Z,69.47
2019-03-28T04:33:28.650Z,72.20
2019-03-28T04:34:07.788Z,70.55
2019-03-28T04:34:42.789Z,69.17
2019-03-28T04:35:19.063Z,71.05
2019-03-28T04:35:55.397Z,73.00
2019-03-28T04:36:31.659Z,69.82
2019-03-28T04:37:08.108Z,66.20
2019-03-28T04:37:44.390Z,68.62
2019-03-28T04:38:20.970Z,69.55
2019-03-28T04:38:57.164Z,61.95
2019-03-28T04:39:33.566Z,63.55
2019-03-28T04:40:10.209Z,67.65
2019-03-28T04:40:46.452Z,71.72
2019-03-28T04:41:22.795Z,69.20
2019-03-28T04:41:59.056Z,72.72
2019-03-28T04:42:35.175Z,63.40
2019-03-28T04:43:11.307Z,71.65
2019-03-28T04:43:47.793Z,64.75
2019-03-28T04:44:24.707Z,67.95
2019-03-28T04:45:01.092Z,65.25
2019-03-28T04:45:37.392Z,70.40
2019-03-28T04:46:13.838Z,70.55
2019-03-28T04:46:50.131Z,69.77
2019-03-28T04:47:26.311Z,66.90
2019-03-28T04:48:02.440Z,68.55
2019-03-28T04:48:38.820Z,68.22
2019-03-28T04:49:15.860Z,68.12
2019-03-28T04:49:52.416Z,72.05
2019-03-28T04:50:28.729Z,72.00
2019-03-28T04:51:04.879Z,78.15
2019-03-28T04:51:41.007Z,74.97
2019-03-28T04:52:17.243Z,73.80
2019-03-28T04:52:53.596Z,75.50
2019-03-28T04:53:29.807Z,71.97
2019-03-28T04:54:05.966Z,69.95
2019-03-28T04:54:42.231Z,67.62
2019-03-28T04:55:18.588Z,71.82
2019-03-28T04:55:54.838Z,76.60
2019-03-28T04:56:30.974Z,78.20
2019-03-28T04:57:07.369Z,77.15
2019-03-28T04:57:43.716Z,75.10
2019-03-28T04:58:21.714Z,78.45
2019-03-28T04:58:57.797Z,72.65
2019-03-28T04:59:34.047Z,72.58
2019-03-28T05:00:10.738Z,71.30
2019-03-28T05:00:46.999Z,75.65
2019-03-28T05:01:23.366Z,72.70
2019-03-28T05:02:03.223Z,79.97
2019-03-28T05:02:37.370Z,77.40
2019-03-28T05:03:13.868Z,68.85
2019-03-28T05:03:50.355Z,76.33
2019-03-28T05:04:26.772Z,73.75
2019-03-28T05:05:03.217Z,77.75
2019-03-28T05:05:39.438Z,73.90
2019-03-28T05:06:15.634Z,79.35
2019-03-28T05:06:51.891Z,85.67
2019-03-28T05:07:28.252Z,87.47
2019-03-28T05:08:04.520Z,87.97
2019-03-28T05:08:40.820Z,88.67
2019-03-28T05:09:17.171Z,82.82
2019-03-28T05:09:53.399Z,82.33
2019-03-28T05:10:29.644Z,85.10
2019-03-28T05:11:05.997Z,86.10
2019-03-28T05:11:42.136Z,85.70
2019-03-28T05:12:18.826Z,77.85
2019-03-28T05:12:55.267Z,80.22
2019-03-28T05:13:31.385Z,74.10
2019-03-28T05:14:07.577Z,80.57
2019-03-28T05:14:43.960Z,80.80
2019-03-28T05:15:20.634Z,77.78
2019-03-28T05:15:57.283Z,81.47
2019-03-28T05:16:33.554Z,70.67
2019-03-28T05:17:09.711Z,68.83
2019-03-28T05:17:46.087Z,67.05
2019-03-28T05:18:22.327Z,70.72
2019-03-28T05:18:58.466Z,74.60
2019-03-28T05:19:34.693Z,74.92
2019-03-28T05:20:13.350Z,74.62
2019-03-28T05:20:49.513Z,72.95
2019-03-28T05:21:25.735Z,74.47
2019-03-28T05:22:01.949Z,68.02
2019-03-28T05:22:38.236Z,68.57
2019-03-28T05:23:14.539Z,74.15
2019-03-28T05:23:50.734Z,71.62
2019-03-28T05:24:27.129Z,75.45
2019-03-28T05:25:03.360Z,73.35
2019-03-28T05:25:39.619Z,73.78
2019-03-28T05:26:15.798Z,71.85
2019-03-28T05:26:52.073Z,70.90
2019-03-28T05:27:28.318Z,73.75
2019-03-28T05:28:04.455Z,75.83
2019-03-28T05:28:40.697Z,72.25
2019-03-28T05:29:16.858Z,73.22
2019-03-28T05:29:53.136Z,69.90
2019-03-28T05:30:29.420Z,75.47
2019-03-28T05:31:05.689Z,74.00
2019-03-28T05:31:41.973Z,75.57
2019-03-28T05:32:18.210Z,70.83
2019-03-28T05:32:54.491Z,76.00
2019-03-28T05:33:30.796Z,72.97
2019-03-28T05:34:07.267Z,75.95
2019-03-28T05:34:43.938Z,69.72
2019-03-28T05:35:20.237Z,73.52
2019-03-28T05:35:56.558Z,73.20
2019-03-28T05:36:32.771Z,70.67
2019-03-28T05:37:08.941Z,65.28
2019-03-28T05:37:45.191Z,63.05
2019-03-28T05:38:21.436Z,66.40
2019-03-28T05:38:57.751Z,67.70
2019-03-28T05:39:34.071Z,69.05
2019-03-28T05:40:11.042Z,67.05
2019-03-28T05:40:47.267Z,66.20
2019-03-28T05:41:23.657Z,65.92
2019-03-28T05:41:59.855Z,66.82
2019-03-28T05:42:36.112Z,70.20
2019-03-28T05:43:12.272Z,73.78
2019-03-28T05:43:48.531Z,70.37
2019-03-28T05:44:25.256Z,66.92
2019-03-28T05:45:01.590Z,71.28
2019-03-28T05:45:37.870Z,70.50
2019-03-28T05:46:14.089Z,61.68
2019-03-28T05:46:50.577Z,65.72
2019-03-28T05:47:26.701Z,69.47
2019-03-28T05:48:02.943Z,71.87
2019-03-28T05:48:39.144Z,68.02
2019-03-28T05:49:15.550Z,71.82
2019-03-28T05:49:51.650Z,69.27
2019-03-28T05:50:27.811Z,70.80
2019-03-28T05:51:04.069Z,70.67
2019-03-28T05:51:40.331Z,69.50
2019-03-28T05:52:16.431Z,66.97
2019-03-28T05:52:52.606Z,67.15
2019-03-28T05:53:28.779Z,68.22
2019-03-28T05:54:05.320Z,63.28
2019-03-28T05:54:41.362Z,65.80
2019-03-28T05:55:17.367Z,70.08
2019-03-28T05:55:53.481Z,70.35
2019-03-28T05:56:29.518Z,71.02
2019-03-28T05:57:06.019Z,71.65
2019-03-28T05:57:42.086Z,71.87
2019-03-28T05:58:18.878Z,65.83
2019-03-28T05:58:54.918Z,67.97
2019-03-28T05:59:31.137Z,70.17
2019-03-28T06:00:07.357Z,64.75
2019-03-28T06:00:43.399Z,69.05
2019-03-28T06:01:19.639Z,64.75
2019-03-28T06:01:55.719Z,70.52
2019-03-28T06:02:31.759Z,74.05
2019-03-28T06:03:07.760Z,70.65
2019-03-28T06:03:43.704Z,67.08
2019-03-28T06:04:19.708Z,69.72
2019-03-28T06:04:55.787Z,70.72
2019-03-28T06:05:31.801Z,70.85
2019-03-28T06:06:07.949Z,69.87
2019-03-28T06:06:44.333Z,69.82
2019-03-28T06:07:20.548Z,67.85
2019-03-28T06:07:57.020Z,70.72
2019-03-28T06:08:33.322Z,78.80
2019-03-28T06:09:09.842Z,72.17
2019-03-28T06:09:45.760Z,69.47
2019-03-28T06:10:21.743Z,67.50
2019-03-28T06:10:57.781Z,69.82
2019-03-28T06:11:33.788Z,64.12
2019-03-28T06:12:09.981Z,62.10
2019-03-28T06:12:46.472Z,67.45
2019-03-28T06:13:22.650Z,68.05
2019-03-28T06:13:58.725Z,68.35
2019-03-28T06:14:34.846Z,69.70
2019-03-28T06:15:11.457Z,69.12
2019-03-28T06:15:47.984Z,63.23
2019-03-28T06:16:24.377Z,63.48
2019-03-28T06:17:00.624Z,70.80
2019-03-28T06:17:36.624Z,69.03
2019-03-28T06:18:12.604Z,64.90
2019-03-28T06:18:48.685Z,69.60
2019-03-28T06:19:24.642Z,69.10
2019-03-28T06:20:00.795Z,67.12
2019-03-28T06:20:36.860Z,69.60
2019-03-28T06:21:13.128Z,72.53
2019-03-28T06:21:49.224Z,69.92
2019-03-28T06:22:25.321Z,69.53
2019-03-28T06:23:01.588Z,67.12
2019-03-28T06:23:37.800Z,67.58
2019-03-28T06:24:13.780Z,69.80
2019-03-28T06:24:49.902Z,70.92
2019-03-28T06:25:25.865Z,65.45
2019-03-28T06:26:02.063Z,68.70
2019-03-28T06:26:38.006Z,69.17
2019-03-28T06:27:14.161Z,66.25
2019-03-28T06:27:50.104Z,70.22
2019-03-28T06:28:26.126Z,68.62
2019-03-28T06:29:02.237Z,69.20
2019-03-28T06:29:38.559Z,71.50
2019-03-28T06:30:14.697Z,71.42
2019-03-28T06:30:50.989Z,69.12
2019-03-28T06:31:27.083Z,70.42
2019-03-28T06:32:03.180Z,70.08
2019-03-28T06:32:43.169Z,69.82
2019-03-28T06:33:16.956Z,65.12
2019-03-28T06:33:53.147Z,67.35
2019-03-28T06:34:29.440Z,69.70
2019-03-28T06:35:06.062Z,68.00
2019-03-28T06:35:42.378Z,68.47
2019-03-28T06:36:18.376Z,73.50
2019-03-28T06:36:54.476Z,69.80
2019-03-28T06:37:30.604Z,71.33
2019-03-28T06:38:06.743Z,70.67
2019-03-28T06:38:42.724Z,71.15
2019-03-28T06:39:18.833Z,65.40
2019-03-28T06:39:54.963Z,67.05
2019-03-28T06:40:31.453Z,66.97
2019-03-28T06:41:07.566Z,66.05
2019-03-28T06:41:44.431Z,67.65
2019-03-28T06:42:20.657Z,68.57
2019-03-28T06:42:56.718Z,69.70
2019-03-28T06:43:32.778Z,69.92
2019-03-28T06:44:08.729Z,71.42
2019-03-28T06:44:44.887Z,69.32
2019-03-28T06:45:20.922Z,65.65
2019-03-28T06:45:56.869Z,67.30
2019-03-28T06:46:32.982Z,69.30
2019-03-28T06:47:09.082Z,69.03
2019-03-28T06:47:45.579Z,66.65
2019-03-28T06:48:21.762Z,68.70
2019-03-28T06:48:57.842Z,68.55
2019-03-28T06:49:33.918Z,71.47
2019-03-28T06:50:10.359Z,68.25
2019-03-28T06:50:46.473Z,64.35
2019-03-28T06:51:22.686Z,65.08
2019-03-28T06:51:58.855Z,63.98
2019-03-28T06:52:35.488Z,68.00
2019-03-28T06:53:12.522Z,65.85
2019-03-28T06:53:48.657Z,64.55
2019-03-28T06:54:24.703Z,70.10
2019-03-28T06:55:01.200Z,69.17
2019-03-28T06:55:37.251Z,69.50
2019-03-28T06:56:13.402Z,69.17
2019-03-28T06:56:49.533Z,67.65
2019-03-28T06:57:25.477Z,64.37
2019-03-28T06:58:02.029Z,63.45
2019-03-28T06:58:38.142Z,63.87
2019-03-28T06:59:14.022Z,65.65
2019-03-28T06:59:50.410Z,72.55
2019-03-28T07:00:26.615Z,61.92
2019-03-28T07:01:02.879Z,61.00
2019-03-28T07:01:38.957Z,62.90
2019-03-28T07:02:15.202Z,61.10
2019-03-28T07:02:51.268Z,63.05
2019-03-28T07:03:27.379Z,61.70
2019-03-28T07:04:04.421Z,66.20
2019-03-28T07:04:40.863Z,64.12
2019-03-28T07:05:17.176Z,60.85
2019-03-28T07:05:53.180Z,63.05
2019-03-28T07:06:29.259Z,61.18
2019-03-28T07:07:05.385Z,63.38
2019-03-28T07:07:41.459Z,58.05
2019-03-28T07:08:17.585Z,62.65
2019-03-28T07:08:53.888Z,58.50
2019-03-28T07:09:29.903Z,57.88
2019-03-28T07:10:06.463Z,60.12
2019-03-28T07:10:42.510Z,58.55
2019-03-28T07:11:18.613Z,60.92
2019-03-28T07:11:55.040Z,57.40
2019-03-28T07:12:31.068Z,63.95
2019-03-28T07:13:07.455Z,70.60
2019-03-28T07:13:43.545Z,72.72
2019-03-28T07:14:19.680Z,64.67
2019-03-28T07:14:55.695Z,59.38
2019-03-28T07:15:31.687Z,60.75
2019-03-28T07:16:07.898Z,58.48
2019-03-28T07:16:44.464Z,61.77
2019-03-28T07:17:20.657Z,60.98
2019-03-28T07:17:56.690Z,66.00
2019-03-28T07:18:32.778Z,70.47
2019-03-28T07:19:09.019Z,69.47
2019-03-28T07:19:45.457Z,67.42
2019-03-28T07:20:21.545Z,65.28
2019-03-28T07:20:57.802Z,59.10
2019-03-28T07:21:34.235Z,66.42
2019-03-28T07:22:10.553Z,76.92
2019-03-28T07:22:46.848Z,58.98
2019-03-28T07:23:23.017Z,62.20
2019-03-28T07:23:58.997Z,65.22
2019-03-28T07:24:34.878Z,56.85
2019-03-28T07:25:11.173Z,57.23
2019-03-28T07:25:47.216Z,55.20
2019-03-28T07:26:23.221Z,56.75
2019-03-28T07:26:59.567Z,72.12
2019-03-28T07:27:35.863Z,73.00
2019-03-28T07:28:11.961Z,66.45
2019-03-28T07:28:48.021Z,81.75
2019-03-28T07:29:24.169Z,78.55
2019-03-28T07:30:00.349Z,85.45
2019-03-28T07:30:36.378Z,72.00
2019-03-28T07:31:12.697Z,68.35
2019-03-28T07:31:48.969Z,75.67
2019-03-28T07:32:25.282Z,71.50
2019-03-28T07:33:01.416Z,76.62
2019-03-28T07:33:37.684Z,67.78
2019-03-28T07:34:13.807Z,68.20
2019-03-28T07:34:50.157Z,70.37
2019-03-28T07:35:26.079Z,62.75
2019-03-28T07:36:02.179Z,59.15
2019-03-28T07:36:38.293Z,66.00
2019-03-28T07:37:14.367Z,67.08
2019-03-28T07:37:50.345Z,69.53
2019-03-28T07:38:26.484Z,59.53
2019-03-28T07:39:02.719Z,57.95
2019-03-28T07:39:38.882Z,58.75
2019-03-28T07:40:15.269Z,60.88
2019-03-28T07:40:51.660Z,58.60
2019-03-28T07:41:27.910Z,59.38
2019-03-28T07:42:04.450Z,63.48
2019-03-28T07:42:40.664Z,63.38
2019-03-28T07:43:16.797Z,64.15
2019-03-28T07:43:52.718Z,61.08
2019-03-28T07:44:28.874Z,56.88
2019-03-28T07:45:05.266Z,54.75
2019-03-28T07:45:41.400Z,52.20
2019-03-28T07:46:17.463Z,54.42
2019-03-28T07:46:53.419Z,48.73
2019-03-28T07:47:29.407Z,52.70
2019-03-28T07:48:05.648Z,53.17
2019-03-28T07:48:41.826Z,55.88